createdAt,value
2022-09-19T00:01:36.203Z,8.16
2022-09-19T00:04:11.966Z,8.10
2022-09-19T00:06:40.509Z,7.92
2022-09-19T00:09:08.789Z,8.20
2022-09-19T00:11:35.152Z,8.13
2022-09-19T00:14:02.040Z,7.96
2022-09-19T00:16:34.781Z,8.14
2022-09-19T00:19:04.141Z,8.09
2022-09-19T00:21:33.955Z,7.83
2022-09-19T00:24:19.584Z,8.12
2022-09-19T00:26:46.406Z,8.28
2022-09-19T00:29:14.151Z,8.12
2022-09-19T00:31:44.245Z,8.19
2022-09-19T00:34:17.042Z,8.21
2022-09-19T00:36:45.871Z,8.38
2022-09-19T00:39:15.317Z,8.22
2022-09-19T00:41:43.056Z,8.17
2022-09-19T00:44:28.056Z,8.49
2022-09-19T00:47:10.265Z,8.36
2022-09-19T00:49:39.828Z,8.55
2022-09-19T00:52:11.302Z,8.14
2022-09-19T00:54:41.597Z,8.34
2022-09-19T00:57:11.844Z,8.37
2022-09-19T00:59:42.143Z,8.38
2022-09-19T01:02:09.950Z,8.42
2022-09-19T01:04:42.932Z,8.67
2022-09-19T01:07:26.809Z,8.42
2022-09-19T01:10:04.375Z,8.39
2022-09-19T01:12:40.283Z,8.64
2022-09-19T01:15:29.630Z,8.26
2022-09-19T01:18:01.196Z,7.90
2022-09-19T01:20:45.895Z,8.01
2022-09-19T01:23:27.316Z,7.80
2022-09-19T01:26:19.993Z,7.47
2022-09-19T01:29:00.153Z,7.64
2022-09-19T01:31:30.556Z,7.72
2022-09-19T01:34:13.264Z,7.62
2022-09-19T01:37:05.712Z,7.52
2022-09-19T01:39:35.675Z,7.64
2022-09-19T01:42:02.361Z,7.22
2022-09-19T01:44:30.889Z,7.41
2022-09-19T01:47:19.384Z,7.13
2022-09-19T01:49:58.427Z,7.06
2022-09-19T01:52:31.537Z,6.91
2022-09-19T01:55:10.678Z,6.70
2022-09-19T01:58:08.709Z,6.65
2022-09-19T02:00:39.605Z,6.55
2022-09-19T02:03:06.054Z,6.65
2022-09-19T02:06:00.527Z,6.54
2022-09-19T02:08:41.141Z,6.67
2022-09-19T02:11:12.976Z,6.63
2022-09-19T02:13:45.244Z,6.54
2022-09-19T02:16:21.724Z,6.53
2022-09-19T02:18:54.316Z,6.56
2022-09-19T02:21:29.960Z,6.38
2022-09-19T02:23:57.527Z,6.68
2022-09-19T02:26:24.025Z,6.51
2022-09-19T02:28:55.527Z,6.37
2022-09-19T02:31:28.210Z,6.57
2022-09-19T02:33:59.916Z,6.34
2022-09-19T02:36:40.496Z,6.30
2022-09-19T02:39:27.391Z,6.44
2022-09-19T02:42:10.105Z,6.50
2022-09-19T02:45:04.037Z,6.36
2022-09-19T02:47:49.975Z,6.49
2022-09-19T02:50:25.125Z,6.40
2022-09-19T02:52:53.558Z,6.72
2022-09-19T02:55:34.086Z,6.72
2022-09-19T02:58:03.529Z,6.76
2022-09-19T03:00:33.322Z,6.51
2022-09-19T03:03:25.298Z,6.67
2022-09-19T03:05:54.843Z,6.78
2022-09-19T03:08:25.178Z,6.74
2022-09-19T03:10:57.684Z,6.92
2022-09-19T03:13:25.527Z,6.66
2022-09-19T03:16:07.505Z,6.82
2022-09-19T03:18:36.419Z,6.67
2022-09-19T03:21:05.063Z,6.68
2022-09-19T03:23:41.507Z,6.67
2022-09-19T03:26:10.074Z,6.73
2022-09-19T03:28:36.522Z,6.75
2022-09-19T03:31:02.910Z,6.75
2022-09-19T03:33:29.574Z,6.71
2022-09-19T03:36:00.225Z,6.76
2022-09-19T03:38:27.559Z,6.91
2022-09-19T03:40:53.954Z,6.66
2022-09-19T03:43:21.211Z,6.95
2022-09-19T03:45:47.662Z,6.67
2022-09-19T03:48:14.443Z,6.63
2022-09-19T03:50:40.903Z,6.79
2022-09-19T03:53:12.708Z,6.88
2022-09-19T03:55:39.182Z,6.76
2022-09-19T03:58:05.640Z,6.78
2022-09-19T04:00:32.177Z,6.70
2022-09-19T04:02:58.563Z,6.86
2022-09-19T04:05:25.082Z,6.70
2022-09-19T04:07:51.874Z,6.82
2022-09-19T04:10:19.332Z,6.51
2022-09-19T04:12:45.678Z,6.47
2022-09-19T04:15:12.122Z,6.65
2022-09-19T04:17:42.644Z,6.49
2022-09-19T04:20:11.460Z,6.69
2022-09-19T04:22:38.493Z,6.62
2022-09-19T04:25:11.844Z,6.85
2022-09-19T04:27:39.062Z,6.78
2022-09-19T04:30:06.862Z,6.72
2022-09-19T04:32:33.256Z,6.88
2022-09-19T04:35:00.677Z,6.50
2022-09-19T04:37:30.475Z,7.14
2022-09-19T04:39:57.302Z,7.02
2022-09-19T04:42:24.699Z,6.89
2022-09-19T04:44:54.768Z,6.66
2022-09-19T04:47:21.825Z,6.66
2022-09-19T04:49:48.259Z,7.01
2022-09-19T04:52:14.665Z,6.72
2022-09-19T04:54:42.405Z,6.92
2022-09-19T04:57:09.558Z,6.34
2022-09-19T04:59:36.579Z,6.54
2022-09-19T05:02:07.031Z,7.08
2022-09-19T05:04:33.803Z,6.91
2022-09-19T05:07:01.055Z,6.80
2022-09-19T05:09:27.782Z,6.76
2022-09-19T05:11:55.033Z,6.56
2022-09-19T05:14:23.034Z,6.64
2022-09-19T05:16:51.178Z,6.73
2022-09-19T05:19:22.950Z,6.67
2022-09-19T05:21:50.430Z,6.65
2022-09-19T05:24:17.578Z,6.71
2022-09-19T05:26:44.311Z,6.50
2022-09-19T05:29:13.721Z,6.49
2022-09-19T05:31:41.238Z,6.48
2022-09-19T05:34:07.690Z,6.21
2022-09-19T05:36:34.069Z,6.34
2022-09-19T05:39:00.431Z,6.45
2022-09-19T05:41:26.834Z,6.10
2022-09-19T05:43:53.456Z,6.07
2022-09-19T05:46:21.632Z,6.05
2022-09-19T05:48:48.980Z,6.27
2022-09-19T05:51:15.546Z,6.33
2022-09-19T05:53:54.179Z,6.33
2022-09-19T05:56:20.976Z,6.33
2022-09-19T05:58:47.407Z,6.15
2022-09-19T06:01:14.862Z,6.42
2022-09-19T06:03:41.522Z,6.15
2022-09-19T06:06:14.791Z,6.22
2022-09-19T06:08:43.246Z,6.35
2022-09-19T06:11:10.429Z,5.84
2022-09-19T06:13:56.083Z,6.67
2022-09-19T06:16:23.079Z,6.27
2022-09-19T06:18:50.134Z,6.29
2022-09-19T06:21:16.626Z,6.34
2022-09-19T06:23:43.468Z,6.44
2022-09-19T06:26:10.391Z,6.38
2022-09-19T06:28:36.767Z,6.17
2022-09-19T06:31:04.592Z,6.34
2022-09-19T06:33:31.924Z,6.09
2022-09-19T06:36:01.959Z,6.46
2022-09-19T06:38:29.715Z,6.45
2022-09-19T06:40:56.075Z,6.50
2022-09-19T06:43:22.976Z,6.41
2022-09-19T06:45:49.756Z,6.40
2022-09-19T06:48:16.552Z,6.71
2022-09-19T06:50:47.401Z,6.74
2022-09-19T06:53:14.762Z,6.77
2022-09-19T06:55:46.309Z,6.87
2022-09-19T06:58:14.595Z,6.73
2022-09-19T07:00:44.165Z,6.50
2022-09-19T07:03:14.017Z,6.90
2022-09-19T07:05:43.794Z,6.77
2022-09-19T07:08:13.676Z,6.99
2022-09-19T07:10:41.001Z,7.00
2022-09-19T07:13:07.676Z,7.01
2022-09-19T07:15:36.130Z,6.98
2022-09-19T07:18:03.949Z,7.19
2022-09-19T07:20:30.314Z,7.07
2022-09-19T07:23:17.333Z,7.19
2022-09-19T07:25:44.623Z,7.17
2022-09-19T07:28:15.338Z,7.28
2022-09-19T07:30:44.536Z,7.62
2022-09-19T07:33:13.322Z,7.56
2022-09-19T07:35:43.453Z,7.54
2022-09-19T07:38:13.868Z,7.57
2022-09-19T07:40:40.723Z,7.53
2022-09-19T07:43:07.139Z,7.55
2022-09-19T07:45:36.664Z,7.51
2022-09-19T07:48:04.857Z,7.73
2022-09-19T07:50:31.796Z,7.86
2022-09-19T07:53:00.161Z,7.73
2022-09-19T07:55:27.144Z,7.75
2022-09-19T07:57:56.595Z,7.68
2022-09-19T08:00:24.219Z,7.70
2022-09-19T08:02:58.190Z,7.72
2022-09-19T08:05:25.579Z,7.79
2022-09-19T08:07:52.504Z,7.71
2022-09-19T08:10:19.801Z,7.80
2022-09-19T08:12:46.595Z,8.03
2022-09-19T08:15:16.421Z,7.95
2022-09-19T08:17:59.060Z,8.28
2022-09-19T08:20:32.117Z,8.11
2022-09-19T08:23:06.639Z,8.35
2022-09-19T08:25:35.816Z,8.48
2022-09-19T08:28:06.075Z,8.63
2022-09-19T08:30:37.347Z,8.88
2022-09-19T08:33:04.792Z,8.78
2022-09-19T08:35:34.263Z,8.94
2022-09-19T08:38:01.926Z,8.84
2022-09-19T08:40:32.171Z,8.53
2022-09-19T08:43:35.618Z,8.71
2022-09-19T08:46:21.401Z,8.66
2022-09-19T08:49:20.301Z,8.90
2022-09-19T08:52:13.359Z,9.07
2022-09-19T08:54:42.062Z,9.15
2022-09-19T08:57:32.368Z,9.51
2022-09-19T09:00:03.987Z,9.75
2022-09-19T09:03:03.620Z,9.60
2022-09-19T09:05:43.476Z,9.96
2022-09-19T09:08:43.952Z,9.85
2022-09-19T09:11:35.228Z,10.11
2022-09-19T09:14:20.361Z,9.89
2022-09-19T09:17:03.108Z,9.69
2022-09-19T09:19:56.659Z,9.80
2022-09-19T09:22:39.366Z,9.65
2022-09-19T09:25:14.731Z,9.78
2022-09-19T09:27:58.368Z,10.12
2022-09-19T09:30:24.858Z,9.90
2022-09-19T09:33:15.126Z,10.01
2022-09-19T09:35:46.905Z,10.18
2022-09-19T09:38:27.187Z,10.05
2022-09-19T09:41:20.303Z,10.39
2022-09-19T09:44:21.994Z,10.26
2022-09-19T09:46:51.227Z,10.44
2022-09-19T09:49:19.766Z,10.63
2022-09-19T09:51:57.547Z,10.72
2022-09-19T09:54:48.890Z,11.22
2022-09-19T09:57:48.657Z,10.90
2022-09-19T10:00:36.043Z,10.97
2022-09-19T10:03:35.126Z,11.30
2022-09-19T10:06:28.595Z,11.39
2022-09-19T10:09:09.688Z,11.12
2022-09-19T10:14:30.474Z,11.03
2022-09-19T10:17:02.517Z,10.58
2022-09-19T10:19:37.626Z,10.82
2022-09-19T10:22:06.367Z,11.11
2022-09-19T10:24:54.093Z,10.53
2022-09-19T10:27:26.389Z,10.46
2022-09-19T10:29:58.893Z,10.39
2022-09-19T10:32:28.549Z,10.65
2022-09-19T10:34:55.039Z,10.51
2022-09-19T10:37:27.490Z,10.63
2022-09-19T10:40:00.682Z,10.77
2022-09-19T10:42:36.109Z,11.04
2022-09-19T10:45:18.115Z,11.46
2022-09-19T10:47:45.291Z,11.89
2022-09-19T10:50:17.535Z,12.05
2022-09-19T10:52:51.971Z,11.66
2022-09-19T10:55:23.048Z,11.76
2022-09-19T10:58:00.455Z,11.76
2022-09-19T11:00:31.334Z,11.53
2022-09-19T11:03:04.056Z,11.18
2022-09-19T11:05:33.919Z,12.15
2022-09-19T11:08:01.183Z,12.35
2022-09-19T11:10:39.166Z,12.50
2022-09-19T11:13:23.806Z,11.82
2022-09-19T11:16:31.586Z,12.28
2022-09-19T11:19:30.076Z,12.55
2022-09-19T11:21:56.494Z,12.53
2022-09-19T11:24:45.667Z,12.42
2022-09-19T11:27:39.889Z,12.18
2022-09-19T11:30:20.129Z,11.89
2022-09-19T11:36:40.364Z,12.21
2022-09-19T11:42:20.074Z,12.53
2022-09-19T11:44:58.662Z,12.36
2022-09-19T11:47:28.554Z,12.33
2022-09-19T11:50:21.555Z,12.44
2022-09-19T11:53:33.067Z,12.35
2022-09-19T11:56:18.489Z,11.73
2022-09-19T11:59:05.959Z,12.38
2022-09-19T12:02:02.250Z,12.16
2022-09-19T12:04:59.682Z,12.13
2022-09-19T12:07:48.509Z,11.94
2022-09-19T12:10:22.743Z,12.09
2022-09-19T12:13:05.124Z,12.28
2022-09-19T12:15:37.083Z,12.21
2022-09-19T12:18:13.909Z,12.78
2022-09-19T12:20:46.271Z,12.89
2022-09-19T12:23:59.781Z,12.57
2022-09-19T12:26:34.850Z,12.59
2022-09-19T12:29:24.921Z,12.49
2022-09-19T12:32:01.920Z,12.44
2022-09-19T12:34:40.536Z,12.62
2022-09-19T12:37:31.258Z,12.78
2022-09-19T12:40:30.024Z,12.81
2022-09-19T12:43:13.852Z,13.24
2022-09-19T12:46:10.363Z,13.61
2022-09-19T12:48:42.889Z,12.98
2022-09-19T12:51:14.198Z,12.61
2022-09-19T12:53:45.822Z,12.77
2022-09-19T12:56:29.148Z,12.34
2022-09-19T12:59:15.020Z,12.82
2022-09-19T13:02:00.362Z,12.66
2022-09-19T13:04:31.784Z,12.49
2022-09-19T13:07:10.158Z,12.53
2022-09-19T13:09:49.939Z,12.55
2022-09-19T13:12:26.634Z,12.51
2022-09-19T13:14:59.600Z,12.54
2022-09-19T13:17:46.066Z,12.53
2022-09-19T13:20:44.160Z,12.62
2022-09-19T13:23:33.995Z,12.55
2022-09-19T13:26:20.325Z,12.75
2022-09-19T13:28:52.857Z,12.80
2022-09-19T13:31:23.530Z,13.03
2022-09-19T13:33:58.551Z,13.20
2022-09-19T13:36:24.958Z,12.87
2022-09-19T13:38:54.826Z,12.34
2022-09-19T13:41:29.764Z,13.14
2022-09-19T13:44:07.537Z,13.00
2022-09-19T13:46:53.987Z,12.79
2022-09-19T13:49:39.257Z,12.57
2022-09-19T13:52:22.349Z,12.86
2022-09-19T13:54:51.915Z,12.70
2022-09-19T13:57:29.611Z,12.61
2022-09-19T13:59:59.471Z,12.21
2022-09-19T14:02:37.382Z,12.75
2022-09-19T14:05:23.826Z,12.75
2022-09-19T14:10:54.811Z,12.35
2022-09-19T14:13:21.545Z,12.31
2022-09-19T14:16:00.284Z,12.08
2022-09-19T14:18:47.970Z,12.37
2022-09-19T14:21:29.850Z,12.17
2022-09-19T14:24:18.644Z,12.30
2022-09-19T14:27:05.715Z,12.09
2022-09-19T14:29:44.616Z,12.02
2022-09-19T14:32:31.964Z,12.35
2022-09-19T14:35:14.568Z,12.61
2022-09-19T14:38:04.566Z,12.57
2022-09-19T14:40:49.902Z,12.26
2022-09-19T14:44:06.266Z,12.18
2022-09-19T14:46:46.417Z,12.78
2022-09-19T14:49:22.008Z,12.63
2022-09-19T14:52:12.993Z,12.77
2022-09-19T14:54:50.688Z,12.68
2022-09-19T14:57:21.499Z,13.09
2022-09-19T14:59:49.953Z,13.19
2022-09-19T15:02:30.590Z,13.25
2022-09-19T15:05:20.312Z,12.92
2022-09-19T15:07:46.911Z,12.62
2022-09-19T15:10:41.043Z,12.90
2022-09-19T15:13:16.366Z,12.59
2022-09-19T15:15:48.940Z,12.25
2022-09-19T15:18:41.610Z,12.73
2022-09-19T15:21:15.833Z,13.04
2022-09-19T15:23:45.096Z,12.98
2022-09-19T15:26:26.985Z,12.81
2022-09-19T15:29:02.368Z,12.86
2022-09-19T15:31:33.449Z,12.61
2022-09-19T15:34:11.760Z,13.24
2022-09-19T15:36:38.482Z,13.00
2022-09-19T15:39:06.756Z,12.78
2022-09-19T15:41:34.819Z,13.03
2022-09-19T15:44:08.019Z,12.61
2022-09-19T15:46:47.042Z,12.32
2022-09-19T15:49:31.724Z,12.35
2022-09-19T15:52:20.864Z,12.41
2022-09-19T15:54:53.179Z,12.19
2022-09-19T15:57:33.077Z,12.09
2022-09-19T16:00:04.799Z,12.13
2022-09-19T16:02:39.890Z,12.01
2022-09-19T16:05:20.778Z,11.95
2022-09-19T16:08:20.579Z,11.81
2022-09-19T16:10:54.993Z,11.82
2022-09-19T16:13:40.131Z,12.25
2022-09-19T16:16:36.445Z,12.06
2022-09-19T16:19:04.007Z,11.94
2022-09-19T16:21:41.030Z,12.45
2022-09-19T16:24:15.375Z,11.95
2022-09-19T16:26:43.216Z,11.83
2022-09-19T16:29:13.786Z,11.91
2022-09-19T16:31:45.246Z,11.99
2022-09-19T16:34:20.877Z,11.73
2022-09-19T16:36:49.799Z,11.73
2022-09-19T16:39:32.641Z,11.80
2022-09-19T16:42:20.201Z,11.62
2022-09-19T16:44:51.860Z,11.45
2022-09-19T16:47:22.683Z,11.38
2022-09-19T16:49:51.957Z,11.35
2022-09-19T16:52:22.248Z,11.17
2022-09-19T16:54:49.437Z,11.30
2022-09-19T16:57:20.395Z,11.08
2022-09-19T16:59:49.983Z,11.11
2022-09-19T17:02:23.262Z,10.84
2022-09-19T17:04:50.332Z,10.96
2022-09-19T17:07:20.438Z,11.16
2022-09-19T17:09:56.893Z,11.11
2022-09-19T17:12:23.821Z,11.04
2022-09-19T17:14:50.771Z,10.99
2022-09-19T17:17:19.112Z,10.96
2022-09-19T17:19:46.517Z,10.94
2022-09-19T17:22:14.994Z,10.72
2022-09-19T17:24:42.838Z,10.59
2022-09-19T17:27:10.038Z,10.71
2022-09-19T17:29:36.765Z,10.52
2022-09-19T17:32:05.272Z,10.62
2022-09-19T17:34:31.722Z,10.53
2022-09-19T17:36:58.418Z,10.46
2022-09-19T17:39:25.060Z,10.52
2022-09-19T17:41:53.505Z,10.26
2022-09-19T17:44:20.356Z,10.51
2022-09-19T17:46:47.836Z,10.56
2022-09-19T17:49:14.267Z,10.36
2022-09-19T17:51:40.683Z,10.26
2022-09-19T17:54:07.675Z,10.30
2022-09-19T17:56:35.279Z,10.27
2022-09-19T17:59:03.209Z,10.02
2022-09-19T18:01:50.162Z,9.88
2022-09-19T18:04:18.026Z,9.90
2022-09-19T18:06:44.992Z,9.44
2022-09-19T18:09:17.191Z,9.50
2022-09-19T18:11:43.698Z,9.16
2022-09-19T18:14:15.009Z,9.02
2022-09-19T18:16:43.599Z,9.05
2022-09-19T18:19:11.223Z,8.94
2022-09-19T18:21:40.845Z,8.62
2022-09-19T18:24:10.744Z,8.37
2022-09-19T18:26:41.362Z,8.25
2022-09-19T18:29:11.694Z,8.38
2022-09-19T18:31:38.105Z,8.18
2022-09-19T18:34:07.668Z,8.03
2022-09-19T18:36:36.200Z,8.02
2022-09-19T18:39:04.795Z,7.79
2022-09-19T18:41:34.287Z,7.87
2022-09-19T18:44:02.800Z,7.54
2022-09-19T18:46:29.201Z,7.46
2022-09-19T18:48:58.916Z,7.42
2022-09-19T18:51:28.344Z,7.49
2022-09-19T18:53:59.096Z,7.25
2022-09-19T18:56:25.484Z,7.13
2022-09-19T18:58:53.653Z,7.05
2022-09-19T19:01:21.524Z,7.38
2022-09-19T19:03:53.159Z,7.00
2022-09-19T19:06:21.746Z,7.08
2022-09-19T19:08:53.441Z,7.13
2022-09-19T19:11:30.515Z,7.14
2022-09-19T19:14:01.537Z,6.95
2022-09-19T19:16:33.965Z,6.97
2022-09-19T19:19:02.345Z,6.77
2022-09-19T19:21:36.199Z,6.84
2022-09-19T19:24:04.566Z,6.89
2022-09-19T19:26:38.110Z,7.02
2022-09-19T19:29:05.339Z,6.88
2022-09-19T19:31:32.371Z,6.77
2022-09-19T19:34:02.831Z,6.78
2022-09-19T19:36:29.260Z,6.69
2022-09-19T19:38:55.982Z,6.59
2022-09-19T19:41:24.977Z,6.76
2022-09-19T19:43:53.557Z,6.50
2022-09-19T19:46:24.174Z,6.17
2022-09-19T19:48:52.960Z,6.60
2022-09-19T19:51:21.501Z,6.27
2022-09-19T19:53:49.066Z,6.34
2022-09-19T19:56:21.990Z,6.34
2022-09-19T19:58:50.789Z,6.45
2022-09-19T20:01:20.045Z,6.53
2022-09-19T20:03:50.035Z,6.34
2022-09-19T20:06:21.109Z,6.16
2022-09-19T20:08:47.875Z,6.46
2022-09-19T20:11:14.976Z,6.26
2022-09-19T20:13:41.885Z,5.96
2022-09-19T20:16:14.680Z,6.34
2022-09-19T20:18:44.198Z,6.41
2022-09-19T20:21:17.865Z,6.05
2022-09-19T20:23:45.480Z,6.66
2022-09-19T20:26:18.756Z,6.47
2022-09-19T20:28:49.910Z,6.25
2022-09-19T20:31:20.308Z,6.33
2022-09-19T20:33:47.741Z,5.83
2022-09-19T20:36:16.316Z,6.03
2022-09-19T20:38:45.299Z,6.20
2022-09-19T20:41:13.581Z,6.21
2022-09-19T20:43:44.177Z,6.07
2022-09-19T20:46:15.965Z,6.32
2022-09-19T20:48:44.833Z,6.65
2022-09-19T20:51:17.416Z,6.27
2022-09-19T20:53:54.404Z,5.91
2022-09-19T20:56:29.261Z,6.23
2022-09-19T20:59:00.222Z,6.29
2022-09-19T21:01:31.529Z,6.11
2022-09-19T21:03:58.154Z,6.26
2022-09-19T21:06:26.467Z,6.11
2022-09-19T21:08:54.854Z,6.00
2022-09-19T21:11:24.873Z,6.24
2022-09-19T21:13:53.703Z,6.40
2022-09-19T21:16:23.317Z,6.36
2022-09-19T21:18:52.126Z,6.18
2022-09-19T21:21:23.307Z,6.18
2022-09-19T21:23:51.371Z,6.58
2022-09-19T21:26:20.315Z,6.52
2022-09-19T21:28:48.419Z,6.41
2022-09-19T21:31:18.086Z,6.48
2022-09-19T21:33:46.885Z,6.38
2022-09-19T21:36:13.592Z,6.29
2022-09-19T21:38:40.179Z,5.99
2022-09-19T21:41:09.178Z,6.50
2022-09-19T21:43:38.446Z,6.47
2022-09-19T21:46:16.142Z,6.62
2022-09-19T21:48:44.918Z,6.63
2022-09-19T21:51:13.830Z,6.13
2022-09-19T21:53:40.847Z,6.66
2022-09-19T21:56:12.782Z,6.64
2022-09-19T21:58:39.737Z,6.55
2022-09-19T22:01:10.194Z,6.67
2022-09-19T22:03:36.632Z,6.55
2022-09-19T22:06:03.771Z,6.57
2022-09-19T22:08:31.889Z,6.78
2022-09-19T22:11:03.993Z,6.72
2022-09-19T22:13:31.703Z,6.79
2022-09-19T22:16:04.104Z,6.67
2022-09-19T22:18:31.139Z,6.57
2022-09-19T22:20:57.701Z,6.23
2022-09-19T22:23:28.010Z,6.33
2022-09-19T22:26:12.679Z,6.72
2022-09-19T22:28:40.082Z,6.51
2022-09-19T22:31:09.051Z,6.23
2022-09-19T22:33:37.377Z,6.23
2022-09-19T22:36:06.344Z,6.10
2022-09-19T22:38:33.289Z,6.05
2022-09-19T22:41:08.736Z,6.16
2022-09-19T22:43:35.120Z,6.06
2022-09-19T22:46:12.206Z,6.08
2022-09-19T22:48:44.395Z,6.11
2022-09-19T22:51:12.793Z,5.84
2022-09-19T22:53:39.663Z,5.79
2022-09-19T22:56:17.648Z,5.95
2022-09-19T22:58:44.310Z,5.76
2022-09-19T23:01:20.126Z,5.67
2022-09-19T23:03:47.530Z,5.75
2022-09-19T23:06:17.572Z,5.64
2022-09-19T23:08:50.523Z,5.57
2022-09-19T23:11:17.814Z,5.32
2022-09-19T23:13:47.129Z,5.24
2022-09-19T23:16:24.436Z,5.28
2022-09-19T23:19:02.909Z,5.21
2022-09-19T23:21:35.127Z,5.18
2022-09-19T23:24:02.173Z,5.02
2022-09-19T23:26:28.861Z,5.05
2022-09-19T23:28:55.454Z,4.98
2022-09-19T23:31:22.084Z,4.96
2022-09-19T23:33:49.350Z,4.91
2022-09-19T23:36:18.339Z,4.79
2022-09-19T23:38:46.945Z,4.82
2022-09-19T23:41:14.725Z,4.75
2022-09-19T23:43:41.282Z,4.80
2022-09-19T23:46:08.220Z,4.62
2022-09-19T23:48:35.923Z,4.67
2022-09-19T23:51:09.883Z,4.73
2022-09-19T23:53:41.574Z,4.74
2022-09-19T23:56:09.298Z,4.94
2022-09-19T23:58:36.263Z,4.88
